sensor_id;sensor_type;location;lat;lon;timestamp;temperature;humidity
1524;DHT22;755;53.658;10.118;2022-10-26T00:07:17;10.20;99.90
1524;DHT22;755;53.658;10.118;2022-10-26T00:17:19;10.00;99.90
1524;DHT22;755;53.658;10.118;2022-10-26T00:27:22;10.00;99.90
1524;DHT22;755;53.658;10.118;2022-10-26T00:37:24;9.90;99.90
1524;DHT22;755;53.658;10.118;2022-10-26T00:47:37;9.70;99.90
1524;DHT22;755;53.658;10.118;2022-10-26T00:57:40;9.70;99.90
1524;DHT22;755;53.658;10.118;2022-10-26T01:07:44;9.60;99.90
1524;DHT22;755;53.658;10.118;2022-10-26T01:17:54;9.50;99.90
1524;DHT22;755;53.658;10.118;2022-10-26T01:28:01;9.40;99.90
1524;DHT22;755;53.658;10.118;2022-10-26T01:38:13;9.20;99.90
1524;DHT22;755;53.658;10.118;2022-10-26T01:48:18;9.10;99.90
1524;DHT22;755;53.658;10.118;2022-10-26T01:59:01;9.10;99.90
1524;DHT22;755;53.658;10.118;2022-10-26T02:09:09;9.00;99.90
1524;DHT22;755;53.658;10.118;2022-10-26T02:19:24;8.90;99.90
1524;DHT22;755;53.658;10.118;2022-10-26T02:29:29;8.90;99.90
1524;DHT22;755;53.658;10.118;2022-10-26T02:39:34;8.90;99.90
1524;DHT22;755;53.658;10.118;2022-10-26T02:49:37;9.00;99.90
1524;DHT22;755;53.658;10.118;2022-10-26T02:59:42;9.00;99.90
1524;DHT22;755;53.658;10.118;2022-10-26T03:09:47;9.10;99.90
1524;DHT22;755;53.658;10.118;2022-10-26T03:19:50;9.00;99.90
1524;DHT22;755;53.658;10.118;2022-10-26T03:29:52;9.00;99.90
1524;DHT22;755;53.658;10.118;2022-10-26T03:39:55;8.90;99.90
1524;DHT22;755;53.658;10.118;2022-10-26T03:49:58;8.90;99.90
1524;DHT22;755;53.658;10.118;2022-10-26T04:00:02;8.80;99.90
1524;DHT22;755;53.658;10.118;2022-10-26T04:10:05;8.70;99.90
1524;DHT22;755;53.658;10.118;2022-10-26T04:20:09;8.70;99.90
1524;DHT22;755;53.658;10.118;2022-10-26T04:30:12;8.70;99.90
1524;DHT22;755;53.658;10.118;2022-10-26T04:40:16;8.70;99.90
1524;DHT22;755;53.658;10.118;2022-10-26T04:50:18;8.80;99.90
1524;DHT22;755;53.658;10.118;2022-10-26T05:00:22;8.70;99.90
1524;DHT22;755;53.658;10.118;2022-10-26T05:10:25;8.50;99.90
1524;DHT22;755;53.658;10.118;2022-10-26T05:20:30;8.40;99.90
1524;DHT22;755;53.658;10.118;2022-10-26T05:30:32;8.40;99.90
1524;DHT22;755;53.658;10.118;2022-10-26T05:40:35;8.30;99.90
1524;DHT22;755;53.658;10.118;2022-10-26T05:50:44;8.20;99.90
1524;DHT22;755;53.658;10.118;2022-10-26T06:01:15;8.10;99.90
1524;DHT22;755;53.658;10.118;2022-10-26T06:11:29;8.00;99.90
1524;DHT22;755;53.658;10.118;2022-10-26T06:21:53;8.00;99.90
1524;DHT22;755;53.658;10.118;2022-10-26T06:32:01;8.50;99.90
1524;DHT22;755;53.658;10.118;2022-10-26T06:42:06;8.60;99.90
1524;DHT22;755;53.658;10.118;2022-10-26T06:52:20;8.80;99.90
1524;DHT22;755;53.658;10.118;2022-10-26T07:02:37;8.90;99.90
1524;DHT22;755;53.658;10.118;2022-10-26T07:12:45;9.00;99.90
1524;DHT22;755;53.658;10.118;2022-10-26T07:23:05;9.10;99.90
1524;DHT22;755;53.658;10.118;2022-10-26T07:33:10;9.30;99.90
1524;DHT22;755;53.658;10.118;2022-10-26T07:43:40;9.40;99.90
1524;DHT22;755;53.658;10.118;2022-10-26T07:54:19;9.60;99.90
1524;DHT22;755;53.658;10.118;2022-10-26T08:15:40;10.00;99.90
1524;DHT22;755;53.658;10.118;2022-10-26T08:26:09;10.20;99.90
1524;DHT22;755;53.658;10.118;2022-10-26T08:37:03;10.40;99.90
1524;DHT22;755;53.658;10.118;2022-10-26T08:47:20;10.60;99.90
1524;DHT22;755;53.658;10.118;2022-10-26T08:57:54;10.90;99.90
1524;DHT22;755;53.658;10.118;2022-10-26T09:08:08;11.10;99.90
1524;DHT22;755;53.658;10.118;2022-10-26T09:18:27;11.40;99.90
1524;DHT22;755;53.658;10.118;2022-10-26T09:28:45;11.60;99.90
1524;DHT22;755;53.658;10.118;2022-10-26T09:39:07;12.00;99.90
1524;DHT22;755;53.658;10.118;2022-10-26T09:49:32;12.20;99.90
1524;DHT22;755;53.658;10.118;2022-10-26T09:59:57;12.30;99.90
1524;DHT22;755;53.658;10.118;2022-10-26T10:10:32;12.60;99.90
1524;DHT22;755;53.658;10.118;2022-10-26T10:20:57;12.80;99.90
1524;DHT22;755;53.658;10.118;2022-10-26T10:31:22;13.00;99.90
1524;DHT22;755;53.658;10.118;2022-10-26T10:52:27;13.60;99.90
1524;DHT22;755;53.658;10.118;2022-10-26T11:03:03;14.00;99.90
1524;DHT22;755;53.658;10.118;2022-10-26T11:13:23;14.00;99.90
1524;DHT22;755;53.658;10.118;2022-10-26T11:23:37;14.10;99.90
1524;DHT22;755;53.658;10.118;2022-10-26T11:34:09;14.10;99.90
1524;DHT22;755;53.658;10.118;2022-10-26T11:44:37;14.40;99.90
1524;DHT22;755;53.658;10.118;2022-10-26T11:55:04;14.60;99.90
1524;DHT22;755;53.658;10.118;2022-10-26T12:05:19;14.80;99.90
1524;DHT22;755;53.658;10.118;2022-10-26T12:15:28;14.90;99.90
1524;DHT22;755;53.658;10.118;2022-10-26T12:25:32;15.30;99.90
1524;DHT22;755;53.658;10.118;2022-10-26T12:35:40;15.40;99.90
1524;DHT22;755;53.658;10.118;2022-10-26T12:45:44;15.30;99.90
1524;DHT22;755;53.658;10.118;2022-10-26T12:56:03;15.40;99.90
1524;DHT22;755;53.658;10.118;2022-10-26T13:06:38;15.50;99.90
1524;DHT22;755;53.658;10.118;2022-10-26T13:16:44;15.70;99.90
1524;DHT22;755;53.658;10.118;2022-10-26T13:27:21;15.80;99.90
1524;DHT22;755;53.658;10.118;2022-10-26T13:37:27;15.80;99.90
1524;DHT22;755;53.658;10.118;2022-10-26T13:47:35;15.90;99.90
1524;DHT22;755;53.658;10.118;2022-10-26T13:57:45;15.70;99.90
1524;DHT22;755;53.658;10.118;2022-10-26T14:07:53;15.60;99.90
1524;DHT22;755;53.658;10.118;2022-10-26T14:17:59;15.70;99.90
1524;DHT22;755;53.658;10.118;2022-10-26T14:28:02;15.70;99.90
1524;DHT22;755;53.658;10.118;2022-10-26T14:38:11;15.50;99.90
1524;DHT22;755;53.658;10.118;2022-10-26T14:48:21;15.50;99.90
1524;DHT22;755;53.658;10.118;2022-10-26T14:58:27;15.40;99.90
1524;DHT22;755;53.658;10.118;2022-10-26T15:08:43;15.30;99.90
1524;DHT22;755;53.658;10.118;2022-10-26T15:18:49;15.20;99.90
1524;DHT22;755;53.658;10.118;2022-10-26T15:28:53;15.10;99.90
1524;DHT22;755;53.658;10.118;2022-10-26T15:38:57;14.90;99.90
1524;DHT22;755;53.658;10.118;2022-10-26T15:49:01;14.60;99.90
1524;DHT22;755;53.658;10.118;2022-10-26T15:59:12;14.40;99.90
1524;DHT22;755;53.658;10.118;2022-10-26T16:09:16;14.10;99.90
1524;DHT22;755;53.658;10.118;2022-10-26T16:19:20;14.00;99.90
1524;DHT22;755;53.658;10.118;2022-10-26T16:29:22;13.70;99.90
1524;DHT22;755;53.658;10.118;2022-10-26T16:39:25;13.70;99.90
1524;DHT22;755;53.658;10.118;2022-10-26T16:49:27;13.70;99.90
1524;DHT22;755;53.658;10.118;2022-10-26T16:59:30;13.70;99.90
1524;DHT22;755;53.658;10.118;2022-10-26T17:09:32;13.70;99.90
1524;DHT22;755;53.658;10.118;2022-10-26T17:19:36;13.50;99.90
1524;DHT22;755;53.658;10.118;2022-10-26T17:29:38;13.30;99.90
1524;DHT22;755;53.658;10.118;2022-10-26T17:39:41;13.10;99.90
1524;DHT22;755;53.658;10.118;2022-10-26T17:49:43;12.90;99.90
1524;DHT22;755;53.658;10.118;2022-10-26T17:59:47;12.80;99.90
1524;DHT22;755;53.658;10.118;2022-10-26T18:09:49;12.70;99.90
1524;DHT22;755;53.658;10.118;2022-10-26T18:19:53;12.60;99.90
1524;DHT22;755;53.658;10.118;2022-10-26T18:29:55;12.70;99.90
1524;DHT22;755;53.658;10.118;2022-10-26T18:39:58;12.90;99.90
1524;DHT22;755;53.658;10.118;2022-10-26T18:50:00;13.00;99.90
1524;DHT22;755;53.658;10.118;2022-10-26T19:00:05;13.20;99.90
1524;DHT22;755;53.658;10.118;2022-10-26T19:10:08;13.30;99.90
1524;DHT22;755;53.658;10.118;2022-10-26T19:20:14;13.20;99.90
1524;DHT22;755;53.658;10.118;2022-10-26T19:30:16;13.00;99.90
1524;DHT22;755;53.658;10.118;2022-10-26T19:40:20;12.80;99.90
1524;DHT22;755;53.658;10.118;2022-10-26T19:50:22;12.60;99.90
1524;DHT22;755;53.658;10.118;2022-10-26T20:00:25;12.50;99.90
1524;DHT22;755;53.658;10.118;2022-10-26T20:10:27;12.50;99.90
1524;DHT22;755;53.658;10.118;2022-10-26T20:20:32;12.40;99.90
1524;DHT22;755;53.658;10.118;2022-10-26T20:30:37;12.10;99.90
1524;DHT22;755;53.658;10.118;2022-10-26T20:40:41;12.00;99.90
1524;DHT22;755;53.658;10.118;2022-10-26T20:50:47;11.80;99.90
1524;DHT22;755;53.658;10.118;2022-10-26T21:00:55;11.60;99.90
1524;DHT22;755;53.658;10.118;2022-10-26T21:10:59;11.60;99.90
1524;DHT22;755;53.658;10.118;2022-10-26T21:21:02;11.60;99.90
1524;DHT22;755;53.658;10.118;2022-10-26T21:31:06;11.50;99.90
1524;DHT22;755;53.658;10.118;2022-10-26T21:41:10;11.40;99.90
1524;DHT22;755;53.658;10.118;2022-10-26T21:51:14;11.20;99.90
1524;DHT22;755;53.658;10.118;2022-10-26T22:01:20;11.10;99.90
1524;DHT22;755;53.658;10.118;2022-10-26T22:11:23;11.00;99.90
1524;DHT22;755;53.658;10.118;2022-10-26T22:21:30;10.90;99.90
1524;DHT22;755;53.658;10.118;2022-10-26T22:31:36;10.90;99.90
1524;DHT22;755;53.658;10.118;2022-10-26T22:41:40;10.80;99.90
1524;DHT22;755;53.658;10.118;2022-10-26T22:51:42;10.60;99.90
1524;DHT22;755;53.658;10.118;2022-10-26T23:01:45;10.60;99.90
1524;DHT22;755;53.658;10.118;2022-10-26T23:11:47;10.50;99.90
1524;DHT22;755;53.658;10.118;2022-10-26T23:21:51;10.40;99.90
1524;DHT22;755;53.658;10.118;2022-10-26T23:31:53;10.50;99.90
1524;DHT22;755;53.658;10.118;2022-10-26T23:41:56;10.60;99.90
1524;DHT22;755;53.658;10.118;2022-10-26T23:51:58;10.60;99.90
